createdAt,value
2019-05-07T00:01:55.459Z,4.10
2019-05-07T00:04:26.266Z,4.20
2019-05-07T00:06:56.952Z,4.20
2019-05-07T00:09:27.695Z,4.10
2019-05-07T00:11:58.145Z,4.00
2019-05-07T00:14:28.625Z,4.00
2019-05-07T00:16:59.072Z,4.00
2019-05-07T00:19:29.227Z,3.90
2019-05-07T00:22:02.207Z,4.00
2019-05-07T00:24:33.140Z,4.00
2019-05-07T00:27:04.074Z,3.90
2019-05-07T00:29:35.382Z,4.00
2019-05-07T00:32:06.142Z,3.90
2019-05-07T00:34:39.354Z,3.90
2019-05-07T00:37:13.081Z,3.90
2019-05-07T00:39:54.431Z,3.90
2019-05-07T00:42:26.795Z,3.90
2019-05-07T00:45:15.939Z,3.90
2019-05-07T00:47:33.528Z,3.90
2019-05-07T00:50:06.536Z,4.00
2019-05-07T00:52:37.280Z,3.90
2019-05-07T00:55:08.357Z,4.00
2019-05-07T00:57:38.826Z,4.00
2019-05-07T01:00:12.490Z,3.90
2019-05-07T01:02:43.950Z,3.80
2019-05-07T01:05:14.368Z,3.70
2019-05-07T01:07:45.602Z,3.80
2019-05-07T01:10:16.657Z,3.80
2019-05-07T01:12:47.173Z,3.70
2019-05-07T01:15:28.828Z,3.70
2019-05-07T01:17:52.065Z,3.80
2019-05-07T01:20:23.365Z,3.80
2019-05-07T01:22:54.739Z,3.80
2019-05-07T01:25:26.311Z,3.70
2019-05-07T01:27:56.767Z,3.70
2019-05-07T01:30:27.557Z,3.70
2019-05-07T01:33:00.013Z,3.70
2019-05-07T01:35:44.588Z,3.70
2019-05-07T01:38:17.233Z,3.60
2019-05-07T01:40:47.595Z,3.60
2019-05-07T01:43:17.944Z,3.50
2019-05-07T01:45:52.789Z,3.60
2019-05-07T01:48:23.015Z,3.70
2019-05-07T01:50:53.336Z,3.60
2019-05-07T01:53:23.954Z,3.60
2019-05-07T01:55:54.279Z,3.50
2019-05-07T01:58:24.734Z,3.60
2019-05-07T02:00:55.579Z,3.50
2019-05-07T02:03:36.708Z,3.50
2019-05-07T02:06:23.922Z,3.50
2019-05-07T02:08:55.776Z,3.50
2019-05-07T02:11:44.656Z,3.40
2019-05-07T02:14:15.212Z,3.50
2019-05-07T02:16:45.932Z,3.50
2019-05-07T02:19:16.518Z,3.60
2019-05-07T02:21:47.470Z,3.60
2019-05-07T02:24:18.066Z,3.70
2019-05-07T02:26:48.328Z,3.70
2019-05-07T02:29:18.733Z,3.80
2019-05-07T02:31:53.041Z,3.90
2019-05-07T02:34:23.546Z,3.80
2019-05-07T02:36:54.267Z,3.80
2019-05-07T02:39:33.377Z,3.70
2019-05-07T02:42:06.154Z,3.70
2019-05-07T02:44:55.312Z,3.60
2019-05-07T02:47:26.164Z,3.60
2019-05-07T02:50:03.057Z,3.50
2019-05-07T02:52:53.653Z,3.50
2019-05-07T02:55:26.847Z,3.40
2019-05-07T02:57:57.275Z,3.50
2019-05-07T03:00:28.060Z,3.50
2019-05-07T03:02:58.618Z,3.50
2019-05-07T03:05:29.221Z,3.50
2019-05-07T03:08:03.069Z,3.70
2019-05-07T03:10:34.002Z,3.60
2019-05-07T03:13:04.845Z,3.60
2019-05-07T03:15:35.364Z,3.60
2019-05-07T03:18:06.723Z,3.60
2019-05-07T03:20:47.945Z,3.50
2019-05-07T03:23:22.605Z,3.50
2019-05-07T03:26:04.138Z,3.50
2019-05-07T03:28:36.265Z,3.50
2019-05-07T03:31:16.665Z,3.60
2019-05-07T03:33:48.068Z,3.50
2019-05-07T03:36:20.249Z,3.40
2019-05-07T03:38:50.364Z,3.40
2019-05-07T03:41:22.825Z,3.40
2019-05-07T03:43:53.061Z,3.40
2019-05-07T03:46:23.691Z,3.40
2019-05-07T03:48:54.359Z,3.40
2019-05-07T03:51:24.720Z,3.50
2019-05-07T03:53:55.189Z,3.50
2019-05-07T03:56:25.982Z,3.50
2019-05-07T03:58:56.696Z,3.50
2019-05-07T04:01:27.391Z,3.50
2019-05-07T04:03:57.725Z,3.50
2019-05-07T04:06:28.136Z,3.50
2019-05-07T04:08:58.672Z,3.50
2019-05-07T04:11:30.089Z,3.50
2019-05-07T04:14:03.165Z,3.50
2019-05-07T04:16:35.541Z,3.60
2019-05-07T04:19:06.329Z,3.60
2019-05-07T04:21:36.667Z,3.60
2019-05-07T04:24:17.612Z,3.60
2019-05-07T04:26:49.801Z,3.70
2019-05-07T04:29:22.897Z,3.70
2019-05-07T04:31:53.357Z,3.70
2019-05-07T04:34:25.674Z,3.80
2019-05-07T04:36:56.122Z,3.90
2019-05-07T04:39:26.345Z,3.90
2019-05-07T04:41:57.074Z,3.90
2019-05-07T04:44:27.592Z,4.10
2019-05-07T04:46:58.253Z,4.20
2019-05-07T04:49:28.521Z,4.20
2019-05-07T04:52:06.218Z,4.30
2019-05-07T04:54:37.655Z,4.30
2019-05-07T04:57:12.722Z,4.20
2019-05-07T04:59:42.890Z,4.30
2019-05-07T05:02:15.363Z,4.40
2019-05-07T05:04:45.918Z,4.40
2019-05-07T05:07:16.245Z,4.40
2019-05-07T05:09:46.653Z,4.50
2019-05-07T05:12:16.929Z,4.50
2019-05-07T05:14:47.568Z,4.70
2019-05-07T05:17:18.214Z,4.80
2019-05-07T05:19:49.076Z,4.90
2019-05-07T05:22:22.148Z,5.10
2019-05-07T05:25:12.712Z,5.30
2019-05-07T05:27:43.467Z,5.30
2019-05-07T05:30:34.361Z,5.50
2019-05-07T05:33:05.117Z,5.50
2019-05-07T05:35:37.057Z,5.60
2019-05-07T05:38:07.263Z,5.50
2019-05-07T05:40:37.934Z,5.50
2019-05-07T05:43:22.614Z,5.60
2019-05-07T05:45:54.987Z,5.90
2019-05-07T05:48:25.619Z,6.10
2019-05-07T05:51:14.331Z,6.10
2019-05-07T05:53:46.387Z,6.10
2019-05-07T05:56:27.521Z,5.90
2019-05-07T05:59:12.128Z,5.80
2019-05-07T06:02:03.360Z,5.90
2019-05-07T06:04:42.065Z,6.00
2019-05-07T06:07:14.863Z,6.30
2019-05-07T06:09:50.152Z,7.20
2019-05-07T06:12:22.232Z,8.00
2019-05-07T06:14:54.341Z,8.80
2019-05-07T06:17:32.428Z,9.50
2019-05-07T06:20:12.195Z,9.80
2019-05-07T06:22:43.640Z,10.10
2019-05-07T06:25:18.580Z,10.30
2019-05-07T06:27:48.814Z,10.60
2019-05-07T06:30:19.809Z,11.00
2019-05-07T06:32:52.146Z,11.30
2019-05-07T06:35:23.000Z,11.80
2019-05-07T06:37:53.307Z,12.30
2019-05-07T06:40:29.468Z,12.60
2019-05-07T06:43:09.385Z,12.90
2019-05-07T06:45:42.287Z,13.30
2019-05-07T06:48:12.840Z,13.70
2019-05-07T06:50:45.012Z,13.80
2019-05-07T06:53:16.623Z,14.00
2019-05-07T06:55:47.027Z,14.50
2019-05-07T06:58:17.455Z,14.70
2019-05-07T07:00:55.669Z,14.50
2019-05-07T07:03:28.477Z,14.70
2019-05-07T07:06:02.758Z,14.50
2019-05-07T07:08:36.181Z,14.00
2019-05-07T07:11:12.804Z,13.90
2019-05-07T07:13:42.738Z,13.80
2019-05-07T07:16:13.784Z,13.30
2019-05-07T07:18:52.066Z,12.90
2019-05-07T07:21:17.255Z,12.20
2019-05-07T07:23:47.649Z,11.90
2019-05-07T07:26:17.772Z,11.30
2019-05-07T07:28:48.095Z,10.90
2019-05-07T07:31:38.384Z,10.70
2019-05-07T07:34:09.154Z,10.70
2019-05-07T07:36:42.327Z,10.90
2019-05-07T07:39:12.805Z,11.10
2019-05-07T07:41:44.597Z,11.40
2019-05-07T07:44:14.728Z,12.30
2019-05-07T07:46:45.092Z,13.00
2019-05-07T07:49:15.443Z,13.60
2019-05-07T07:51:46.082Z,13.80
2019-05-07T07:54:16.419Z,13.90
2019-05-07T07:56:57.296Z,14.20
2019-05-07T07:59:45.472Z,14.60
2019-05-07T08:02:17.273Z,14.90
2019-05-07T08:04:47.851Z,14.90
2019-05-07T08:07:18.079Z,15.40
2019-05-07T08:09:49.336Z,15.30
2019-05-07T08:12:22.211Z,14.80
2019-05-07T08:14:52.112Z,14.50
2019-05-07T08:17:22.579Z,14.10
2019-05-07T08:19:53.183Z,14.00
2019-05-07T08:22:23.620Z,13.90
2019-05-07T08:24:53.960Z,13.70
2019-05-07T08:27:24.309Z,13.90
2019-05-07T08:29:54.580Z,13.20
2019-05-07T08:32:26.605Z,12.40
2019-05-07T08:35:16.560Z,12.10
2019-05-07T08:37:47.067Z,11.20
2019-05-07T08:40:17.663Z,11.30
2019-05-07T08:42:48.148Z,12.40
2019-05-07T08:45:24.939Z,13.40
2019-05-07T08:47:56.949Z,14.30
2019-05-07T08:50:27.528Z,15.00
2019-05-07T08:52:57.816Z,15.50
2019-05-07T08:55:28.061Z,15.80
2019-05-07T08:57:58.441Z,15.80
2019-05-07T09:00:28.806Z,16.10
2019-05-07T09:02:59.023Z,15.90
2019-05-07T09:05:29.267Z,15.20
2019-05-07T09:07:59.480Z,14.40
2019-05-07T09:10:32.298Z,14.30
2019-05-07T09:13:02.786Z,13.90
2019-05-07T09:15:33.332Z,14.40
2019-05-07T09:18:04.239Z,15.40
2019-05-07T09:20:34.685Z,16.20
2019-05-07T09:23:05.471Z,16.80
2019-05-07T09:25:37.334Z,17.10
2019-05-07T09:28:07.696Z,17.50
2019-05-07T09:30:56.477Z,17.80
2019-05-07T09:33:28.478Z,17.90
2019-05-07T09:35:59.006Z,17.60
2019-05-07T09:38:29.546Z,17.20
2019-05-07T09:40:59.788Z,17.40
2019-05-07T09:43:32.283Z,17.80
2019-05-07T09:46:02.688Z,18.10
2019-05-07T09:48:33.824Z,18.40
2019-05-07T09:51:04.397Z,18.00
2019-05-07T09:53:34.722Z,17.40
2019-05-07T09:56:05.169Z,15.70
2019-05-07T09:58:38.924Z,14.50
2019-05-07T10:01:08.649Z,13.50
2019-05-07T10:03:38.876Z,13.00
2019-05-07T10:06:09.298Z,13.30
2019-05-07T10:08:41.903Z,14.30
2019-05-07T10:11:14.001Z,15.30
2019-05-07T10:13:46.180Z,15.50
2019-05-07T10:16:18.090Z,16.10
2019-05-07T10:18:48.433Z,16.60
2019-05-07T10:21:19.008Z,16.80
2019-05-07T10:23:49.438Z,17.10
2019-05-07T10:26:19.641Z,16.80
2019-05-07T10:28:50.190Z,16.20
2019-05-07T10:31:22.345Z,15.80
2019-05-07T10:33:52.877Z,15.50
2019-05-07T10:36:23.558Z,15.40
2019-05-07T10:38:53.965Z,14.70
2019-05-07T10:41:24.592Z,14.00
2019-05-07T10:43:55.382Z,13.20
2019-05-07T10:46:42.669Z,12.40
2019-05-07T10:49:14.703Z,11.90
2019-05-07T10:51:45.046Z,11.60
2019-05-07T10:54:15.573Z,11.60
2019-05-07T10:56:45.705Z,11.70
2019-05-07T10:59:15.911Z,12.70
2019-05-07T11:01:48.051Z,13.30
2019-05-07T11:04:18.238Z,13.90
2019-05-07T11:06:49.044Z,14.70
2019-05-07T11:09:19.458Z,15.30
2019-05-07T11:11:51.843Z,15.80
2019-05-07T11:14:22.170Z,15.80
2019-05-07T11:17:11.713Z,15.70
2019-05-07T11:19:41.701Z,15.00
2019-05-07T11:22:12.304Z,14.20
2019-05-07T11:24:42.836Z,13.30
2019-05-07T11:27:13.353Z,12.70
2019-05-07T11:29:43.965Z,12.30
2019-05-07T11:32:14.403Z,11.50
2019-05-07T11:34:44.902Z,11.30
2019-05-07T11:37:15.034Z,11.30
2019-05-07T11:39:46.070Z,11.70
2019-05-07T11:42:18.139Z,12.60
2019-05-07T11:44:48.358Z,13.40
2019-05-07T11:47:26.396Z,14.00
2019-05-07T11:50:14.822Z,14.60
2019-05-07T11:52:51.789Z,15.00
2019-05-07T11:55:22.416Z,14.80
2019-05-07T11:57:53.718Z,14.30
2019-05-07T12:00:38.520Z,14.00
2019-05-07T12:03:09.075Z,13.60
2019-05-07T12:05:39.024Z,13.20
2019-05-07T12:08:09.401Z,13.10
2019-05-07T12:10:39.874Z,13.20
2019-05-07T12:13:12.262Z,13.10
2019-05-07T12:15:42.964Z,13.00
2019-05-07T12:18:13.602Z,12.80
2019-05-07T12:20:43.950Z,12.70
2019-05-07T12:23:14.429Z,12.70
2019-05-07T12:25:44.695Z,13.10
2019-05-07T12:28:15.665Z,13.40
2019-05-07T12:30:59.777Z,13.90
2019-05-07T12:33:32.460Z,14.10
2019-05-07T12:36:02.920Z,14.50
2019-05-07T12:38:33.201Z,14.70
2019-05-07T12:41:05.282Z,15.00
2019-05-07T12:43:35.725Z,14.90
2019-05-07T12:46:06.048Z,14.60
2019-05-07T12:48:36.341Z,14.40
2019-05-07T12:51:06.534Z,14.50
2019-05-07T12:53:47.417Z,14.80
2019-05-07T12:56:17.793Z,14.70
2019-05-07T12:58:48.067Z,14.50
2019-05-07T13:01:36.357Z,14.40
2019-05-07T13:04:08.098Z,14.10
2019-05-07T13:06:42.413Z,13.80
2019-05-07T13:09:12.680Z,13.50
2019-05-07T13:11:42.958Z,13.30
2019-05-07T13:14:13.298Z,13.10
2019-05-07T13:16:43.407Z,12.70
2019-05-07T13:19:13.848Z,12.40
2019-05-07T13:21:49.964Z,12.50
2019-05-07T13:24:16.013Z,12.60
2019-05-07T13:26:46.422Z,13.10
2019-05-07T13:29:16.959Z,13.70
2019-05-07T13:31:48.718Z,14.20
2019-05-07T13:34:18.953Z,14.40
2019-05-07T13:36:51.672Z,14.30
2019-05-07T13:39:26.971Z,14.30
2019-05-07T13:42:05.040Z,14.50
2019-05-07T13:44:46.727Z,14.60
2019-05-07T13:47:24.706Z,15.00
2019-05-07T13:49:56.186Z,14.90
2019-05-07T13:52:26.655Z,15.00
2019-05-07T13:54:57.188Z,14.80
2019-05-07T13:57:27.487Z,14.90
2019-05-07T13:59:59.175Z,14.80
2019-05-07T14:02:31.778Z,15.00
2019-05-07T14:05:02.069Z,15.00
2019-05-07T14:07:34.371Z,15.10
2019-05-07T14:10:05.811Z,14.50
2019-05-07T14:12:36.011Z,13.90
2019-05-07T14:15:07.558Z,13.80
2019-05-07T14:17:37.894Z,13.80
2019-05-07T14:20:08.589Z,13.70
2019-05-07T14:22:38.851Z,13.70
2019-05-07T14:25:10.062Z,13.70
2019-05-07T14:27:42.690Z,13.70
2019-05-07T14:30:13.873Z,13.80
2019-05-07T14:32:48.870Z,13.80
2019-05-07T14:35:23.490Z,13.90
2019-05-07T14:38:02.521Z,13.90
2019-05-07T14:40:33.261Z,14.00
2019-05-07T14:43:12.609Z,14.10
2019-05-07T14:45:43.241Z,14.10
2019-05-07T14:48:13.785Z,14.10
2019-05-07T14:50:44.993Z,14.10
2019-05-07T14:53:16.093Z,13.80
2019-05-07T14:55:46.774Z,13.50
2019-05-07T14:58:18.550Z,13.50
2019-05-07T15:00:48.841Z,13.60
2019-05-07T15:03:19.465Z,13.50
2019-05-07T15:05:49.699Z,13.30
2019-05-07T15:08:21.992Z,13.10
2019-05-07T15:10:52.568Z,13.00
2019-05-07T15:13:23.251Z,13.10
2019-05-07T15:15:53.698Z,13.20
2019-05-07T15:18:42.845Z,13.10
2019-05-07T15:21:14.267Z,13.20
2019-05-07T15:23:44.628Z,13.10
2019-05-07T15:26:15.523Z,13.00
2019-05-07T15:28:47.655Z,12.90
2019-05-07T15:31:19.941Z,13.00
2019-05-07T15:33:52.309Z,13.30
2019-05-07T15:36:22.896Z,13.60
2019-05-07T15:38:53.199Z,13.50
2019-05-07T15:41:24.089Z,13.60
2019-05-07T15:43:54.388Z,13.80
2019-05-07T15:46:24.808Z,13.80
2019-05-07T15:48:55.011Z,13.80
2019-05-07T15:51:25.133Z,13.80
2019-05-07T15:53:57.039Z,13.90
2019-05-07T15:56:27.292Z,13.70
2019-05-07T15:58:57.550Z,13.80
2019-05-07T16:01:27.891Z,13.90
2019-05-07T16:03:58.428Z,13.70
2019-05-07T16:06:28.541Z,13.70
2019-05-07T16:09:02.475Z,13.70
2019-05-07T16:11:32.603Z,13.60
2019-05-07T16:14:04.903Z,13.50
2019-05-07T16:16:37.196Z,13.30
2019-05-07T16:19:09.352Z,13.10
2019-05-07T16:21:42.370Z,12.90
2019-05-07T16:24:12.299Z,12.60
2019-05-07T16:26:42.595Z,12.30
2019-05-07T16:29:13.421Z,12.20
2019-05-07T16:31:45.168Z,12.30
2019-05-07T16:34:15.451Z,12.50
2019-05-07T16:36:46.043Z,12.70
2019-05-07T16:39:16.678Z,12.90
2019-05-07T16:41:46.875Z,12.90
2019-05-07T16:44:17.400Z,12.90
2019-05-07T16:46:47.706Z,12.80
2019-05-07T16:49:18.327Z,12.70
2019-05-07T16:51:48.559Z,12.60
2019-05-07T16:54:19.250Z,12.50
2019-05-07T16:57:08.188Z,12.50
2019-05-07T16:59:38.533Z,12.60
2019-05-07T17:02:12.625Z,12.50
2019-05-07T17:04:44.180Z,12.40
2019-05-07T17:07:15.846Z,12.20
2019-05-07T17:09:46.091Z,12.30
2019-05-07T17:12:17.842Z,12.40
2019-05-07T17:14:48.613Z,12.30
2019-05-07T17:17:19.105Z,12.30
2019-05-07T17:19:52.043Z,12.10
2019-05-07T17:22:22.752Z,12.10
2019-05-07T17:24:53.123Z,11.90
2019-05-07T17:27:23.411Z,11.80
2019-05-07T17:29:53.413Z,11.70
2019-05-07T17:32:23.524Z,11.70
2019-05-07T17:34:54.637Z,11.70
2019-05-07T17:37:25.386Z,11.60
2019-05-07T17:39:55.537Z,11.50
2019-05-07T17:42:26.120Z,11.30
2019-05-07T17:44:56.303Z,11.30
2019-05-07T17:47:26.576Z,11.00
2019-05-07T17:49:57.149Z,10.90
2019-05-07T17:52:27.643Z,10.80
2019-05-07T17:54:58.236Z,10.80
2019-05-07T17:57:28.610Z,10.90
2019-05-07T17:59:58.833Z,10.80
2019-05-07T18:02:32.347Z,10.70
2019-05-07T18:05:02.812Z,10.80
2019-05-07T18:07:33.445Z,10.70
2019-05-07T18:10:03.734Z,10.60
2019-05-07T18:12:34.009Z,10.50
2019-05-07T18:15:06.890Z,10.50
2019-05-07T18:17:44.632Z,10.40
2019-05-07T18:20:15.211Z,10.20
2019-05-07T18:22:45.762Z,10.10
2019-05-07T18:25:15.914Z,10.00
2019-05-07T18:27:46.465Z,10.00
2019-05-07T18:30:16.756Z,9.90
2019-05-07T18:32:57.061Z,9.80
2019-05-07T18:35:27.327Z,9.70
2019-05-07T18:37:57.923Z,9.60
2019-05-07T18:40:28.385Z,9.60
2019-05-07T18:42:58.402Z,9.50
2019-05-07T18:45:28.679Z,9.40
2019-05-07T18:47:58.852Z,9.20
2019-05-07T18:50:28.991Z,9.10
2019-05-07T18:52:59.160Z,9.00
2019-05-07T18:55:29.182Z,8.90
2019-05-07T18:57:59.323Z,8.80
2019-05-07T19:00:34.219Z,8.70
2019-05-07T19:03:04.584Z,8.60
2019-05-07T19:05:34.936Z,8.50
2019-05-07T19:08:08.311Z,8.40
2019-05-07T19:10:37.063Z,8.20
2019-05-07T19:13:07.232Z,8.10
2019-05-07T19:15:37.547Z,8.00
2019-05-07T19:18:07.751Z,7.90
2019-05-07T19:20:37.903Z,7.80
2019-05-07T19:23:07.994Z,7.70
2019-05-07T19:25:38.330Z,7.60
2019-05-07T19:28:11.654Z,7.50
2019-05-07T19:30:42.015Z,7.50
2019-05-07T19:33:13.207Z,7.40
2019-05-07T19:35:43.822Z,7.30
2019-05-07T19:38:14.285Z,7.30
2019-05-07T19:40:45.937Z,7.20
2019-05-07T19:43:16.505Z,7.20
2019-05-07T19:45:47.102Z,7.20
2019-05-07T19:48:17.258Z,7.20
2019-05-07T19:50:47.724Z,7.20
2019-05-07T19:53:20.440Z,7.20
2019-05-07T19:56:03.525Z,7.20
2019-05-07T19:58:34.177Z,7.20
2019-05-07T20:01:05.905Z,7.10
2019-05-07T20:03:36.917Z,7.10
2019-05-07T20:06:09.037Z,7.10
2019-05-07T20:08:39.311Z,7.10
2019-05-07T20:11:14.625Z,7.10
2019-05-07T20:13:45.051Z,7.10
2019-05-07T20:16:19.641Z,7.10
2019-05-07T20:18:52.322Z,7.10
2019-05-07T20:21:23.044Z,7.20
2019-05-07T20:23:53.432Z,7.20
2019-05-07T20:26:23.933Z,7.30
2019-05-07T20:28:56.020Z,7.30
2019-05-07T20:31:26.473Z,7.30
2019-05-07T20:33:56.944Z,7.30
2019-05-07T20:36:27.333Z,7.40
2019-05-07T20:38:57.865Z,7.40
2019-05-07T20:41:27.997Z,7.40
2019-05-07T20:43:58.958Z,7.40
2019-05-07T20:46:31.897Z,7.40
2019-05-07T20:49:02.999Z,7.40
2019-05-07T20:51:33.610Z,7.40
2019-05-07T20:54:23.732Z,7.50
2019-05-07T20:56:55.568Z,7.50
2019-05-07T20:59:25.914Z,7.60
2019-05-07T21:01:56.310Z,7.60
2019-05-07T21:04:26.857Z,7.60
2019-05-07T21:06:57.269Z,7.60
2019-05-07T21:09:27.965Z,7.70
2019-05-07T21:11:58.539Z,7.60
2019-05-07T21:14:29.667Z,7.70
2019-05-07T21:17:00.285Z,7.70
2019-05-07T21:19:32.816Z,7.70
2019-05-07T21:22:02.535Z,7.70
2019-05-07T21:24:33.273Z,7.70
2019-05-07T21:27:03.841Z,7.80
2019-05-07T21:29:34.696Z,7.80
2019-05-07T21:32:04.923Z,7.80
2019-05-07T21:34:35.314Z,7.80
2019-05-07T21:37:08.507Z,7.80
2019-05-07T21:39:37.957Z,7.80
2019-05-07T21:42:09.411Z,7.80
2019-05-07T21:44:39.832Z,7.80
2019-05-07T21:47:12.432Z,7.90
2019-05-07T21:49:43.049Z,7.90
2019-05-07T21:52:13.487Z,7.90
2019-05-07T21:54:49.642Z,8.00
2019-05-07T21:57:24.703Z,8.00
2019-05-07T22:00:13.844Z,8.10
2019-05-07T22:02:44.560Z,8.10
2019-05-07T22:05:15.436Z,8.10
2019-05-07T22:07:45.695Z,8.00
2019-05-07T22:10:16.269Z,8.00
2019-05-07T22:12:46.899Z,8.00
2019-05-07T22:15:17.024Z,8.00
2019-05-07T22:17:47.346Z,8.00
2019-05-07T22:20:17.754Z,8.00
2019-05-07T22:22:48.487Z,8.00
2019-05-07T22:25:18.932Z,8.00
2019-05-07T22:27:49.157Z,8.00
2019-05-07T22:30:28.967Z,8.00
2019-05-07T22:33:02.463Z,8.00
2019-05-07T22:35:34.832Z,8.00
2019-05-07T22:38:05.612Z,7.90
2019-05-07T22:40:36.031Z,8.00
2019-05-07T22:43:06.603Z,8.00
2019-05-07T22:45:37.195Z,8.00
2019-05-07T22:48:07.734Z,8.00
2019-05-07T22:50:38.765Z,7.90
2019-05-07T22:53:09.399Z,7.90
2019-05-07T22:55:41.806Z,7.90
2019-05-07T22:58:16.151Z,7.80
2019-05-07T23:01:02.453Z,7.80
2019-05-07T23:03:32.772Z,7.80
2019-05-07T23:06:09.332Z,7.80
2019-05-07T23:08:42.134Z,7.90
2019-05-07T23:11:12.483Z,7.90
2019-05-07T23:13:43.100Z,7.90
2019-05-07T23:16:13.915Z,7.90
2019-05-07T23:18:44.602Z,7.80
2019-05-07T23:21:15.092Z,7.90
2019-05-07T23:23:45.812Z,7.90
2019-05-07T23:26:16.244Z,7.90
2019-05-07T23:28:47.072Z,7.80
2019-05-07T23:31:19.813Z,7.80
2019-05-07T23:33:52.354Z,7.80
2019-05-07T23:36:23.226Z,7.80
2019-05-07T23:38:54.512Z,7.80
2019-05-07T23:41:33.062Z,7.70
2019-05-07T23:44:12.430Z,7.70
2019-05-07T23:46:44.866Z,7.60
2019-05-07T23:49:15.680Z,7.70
2019-05-07T23:51:46.092Z,7.70
2019-05-07T23:54:16.510Z,7.60
2019-05-07T23:56:46.754Z,7.60
2019-05-07T23:59:17.107Z,7.60
